createdAt,value
2018-06-20T00:00:45.879Z,8.47
2018-06-20T00:03:15.854Z,9.90
2018-06-20T00:05:44.504Z,11.27
2018-06-20T00:08:13.140Z,8.53
2018-06-20T00:10:41.801Z,9.03
2018-06-20T00:13:10.473Z,8.83
2018-06-20T00:15:39.103Z,8.93
2018-06-20T00:18:07.822Z,9.60
2018-06-20T00:20:36.430Z,11.30
2018-06-20T00:23:05.063Z,5.93
2018-06-20T00:25:33.752Z,5.00
2018-06-20T00:28:02.463Z,8.10
2018-06-20T00:30:31.127Z,5.90
2018-06-20T00:32:59.821Z,7.93
2018-06-20T00:35:28.527Z,12.13
2018-06-20T00:37:57.195Z,9.33
2018-06-20T00:40:25.875Z,8.20
2018-06-20T00:42:54.783Z,10.47
2018-06-20T00:45:23.482Z,7.60
2018-06-20T00:47:52.169Z,10.20
2018-06-20T00:50:20.852Z,12.10
2018-06-20T00:52:49.536Z,10.90
2018-06-20T00:55:28.363Z,7.80
2018-06-20T00:57:57.011Z,10.50
2018-06-20T01:00:25.707Z,15.27
2018-06-20T01:02:54.279Z,8.77
2018-06-20T01:05:22.949Z,11.57
2018-06-20T01:07:51.587Z,10.23
2018-06-20T01:10:20.271Z,6.00
2018-06-20T01:12:48.946Z,11.67
2018-06-20T01:15:17.635Z,10.40
2018-06-20T01:17:46.509Z,7.77
2018-06-20T01:20:15.256Z,6.17
2018-06-20T01:22:43.916Z,7.63
2018-06-20T01:25:12.630Z,11.07
2018-06-20T01:27:41.344Z,9.00
2018-06-20T01:30:10.056Z,10.23
2018-06-20T01:32:38.755Z,13.60
2018-06-20T01:35:07.451Z,8.00
2018-06-20T01:37:36.183Z,8.10
2018-06-20T01:40:04.853Z,10.47
2018-06-20T01:42:33.516Z,12.23
2018-06-20T01:45:02.224Z,11.33
2018-06-20T01:47:30.927Z,12.87
2018-06-20T01:49:59.615Z,15.27
2018-06-20T01:52:28.304Z,12.27
2018-06-20T01:54:56.997Z,15.07
2018-06-20T01:57:25.635Z,12.13
2018-06-20T01:59:54.413Z,7.83
2018-06-20T02:02:23.109Z,13.00
2018-06-20T02:04:51.787Z,8.57
2018-06-20T02:07:20.539Z,10.07
2018-06-20T02:09:49.241Z,8.40
2018-06-20T02:12:18.086Z,9.13
2018-06-20T02:14:46.784Z,13.37
2018-06-20T02:17:15.454Z,11.83
2018-06-20T02:19:44.122Z,10.40
2018-06-20T02:22:12.847Z,14.87
2018-06-20T02:24:42.211Z,14.53
2018-06-20T02:27:10.914Z,10.23
2018-06-20T02:29:39.580Z,12.40
2018-06-20T02:32:08.268Z,11.70
2018-06-20T02:34:36.947Z,12.33
2018-06-20T02:37:06.380Z,7.40
2018-06-20T02:39:35.268Z,11.47
2018-06-20T02:42:03.982Z,9.87
2018-06-20T02:44:32.631Z,13.03
2018-06-20T02:47:01.287Z,10.60
2018-06-20T02:49:29.976Z,10.40
2018-06-20T02:51:58.649Z,12.80
2018-06-20T02:54:27.941Z,13.73
2018-06-20T02:56:56.636Z,9.23
2018-06-20T02:59:25.280Z,10.83
2018-06-20T03:01:53.960Z,7.97
2018-06-20T03:04:22.632Z,10.10
2018-06-20T03:06:51.371Z,8.40
2018-06-20T03:09:25.567Z,9.57
2018-06-20T03:11:54.263Z,7.93
2018-06-20T03:14:23.819Z,11.63
2018-06-20T03:16:52.489Z,9.70
2018-06-20T03:19:21.151Z,10.50
2018-06-20T03:21:49.853Z,10.93
2018-06-20T03:24:18.675Z,12.77
2018-06-20T03:26:47.327Z,9.90
2018-06-20T03:29:15.989Z,13.13
2018-06-20T03:31:44.631Z,9.67
2018-06-20T03:34:13.391Z,12.00
2018-06-20T03:36:42.091Z,11.83
2018-06-20T03:39:11.195Z,11.00
2018-06-20T03:41:40.296Z,9.40
2018-06-20T03:44:08.999Z,12.73
2018-06-20T03:46:37.647Z,11.80
2018-06-20T03:49:06.382Z,9.80
2018-06-20T03:51:35.145Z,12.50
2018-06-20T03:54:03.822Z,12.23
2018-06-20T03:56:32.478Z,11.77
2018-06-20T03:59:01.179Z,9.13
2018-06-20T04:01:29.895Z,13.10
2018-06-20T04:03:58.576Z,11.53
2018-06-20T04:06:27.309Z,9.77
2018-06-20T04:08:56.023Z,12.63
2018-06-20T04:11:24.739Z,11.50
2018-06-20T04:13:53.476Z,12.83
2018-06-20T04:16:22.169Z,10.20
2018-06-20T04:18:50.869Z,12.63
2018-06-20T04:21:19.547Z,9.10
2018-06-20T04:23:48.254Z,11.60
2018-06-20T04:26:16.873Z,14.00
2018-06-20T04:28:45.626Z,13.70
2018-06-20T04:31:14.292Z,18.90
2018-06-20T04:33:42.967Z,11.00
2018-06-20T04:36:11.715Z,10.63
2018-06-20T04:38:40.425Z,14.37
2018-06-20T04:41:09.074Z,9.47
2018-06-20T04:43:37.962Z,14.90
2018-06-20T04:46:06.859Z,17.00
2018-06-20T04:48:36.255Z,11.20
2018-06-20T04:51:04.950Z,11.93
2018-06-20T04:53:33.635Z,11.80
2018-06-20T04:56:02.911Z,10.23
2018-06-20T04:58:31.636Z,14.80
2018-06-20T05:01:00.344Z,16.37
2018-06-20T05:03:28.991Z,10.40
2018-06-20T05:05:57.647Z,17.80
2018-06-20T05:08:26.348Z,9.30
2018-06-20T05:10:55.047Z,15.83
2018-06-20T05:13:23.703Z,13.77
2018-06-20T05:15:52.884Z,9.50
2018-06-20T05:18:21.517Z,8.33
2018-06-20T05:20:50.304Z,9.77
2018-06-20T05:23:19.014Z,11.30
2018-06-20T05:25:47.707Z,10.90
2018-06-20T05:28:16.396Z,14.70
2018-06-20T05:30:48.855Z,11.47
2018-06-20T05:33:17.849Z,9.30
2018-06-20T05:35:46.742Z,10.17
2018-06-20T05:38:15.852Z,10.47
2018-06-20T05:40:44.948Z,7.90
2018-06-20T05:43:13.680Z,11.00
2018-06-20T05:45:42.356Z,9.03
2018-06-20T05:48:11.031Z,16.87
2018-06-20T05:50:39.698Z,11.20
2018-06-20T05:53:08.407Z,10.80
2018-06-20T05:55:37.051Z,15.37
2018-06-20T05:58:05.751Z,11.03
2018-06-20T06:00:34.467Z,10.10
2018-06-20T06:03:03.112Z,11.53
2018-06-20T06:05:31.896Z,9.43
2018-06-20T06:08:06.560Z,14.83
2018-06-20T06:10:35.295Z,8.50
2018-06-20T06:13:03.975Z,14.50
2018-06-20T06:15:32.663Z,11.90
2018-06-20T06:18:01.350Z,7.00
2018-06-20T06:20:30.027Z,9.30
2018-06-20T06:22:58.868Z,9.73
2018-06-20T06:25:27.539Z,8.33
2018-06-20T06:27:56.204Z,7.47
2018-06-20T06:30:25.689Z,12.80
2018-06-20T06:32:54.372Z,8.23
2018-06-20T06:35:23.093Z,7.37
2018-06-20T06:37:51.801Z,10.27
2018-06-20T06:40:20.634Z,9.50
2018-06-20T06:42:49.342Z,10.10
2018-06-20T06:45:18.068Z,9.20
2018-06-20T06:47:46.723Z,9.23
2018-06-20T06:50:15.518Z,9.70
2018-06-20T06:52:44.190Z,9.73
2018-06-20T06:55:12.913Z,13.13
2018-06-20T06:58:45.487Z,13.17
2018-06-20T07:01:14.186Z,9.60
2018-06-20T07:03:43.066Z,8.97
2018-06-20T07:06:11.744Z,11.63
2018-06-20T07:08:40.575Z,7.53
2018-06-20T07:11:09.431Z,10.10
2018-06-20T07:13:38.075Z,7.30
2018-06-20T07:16:06.746Z,8.90
2018-06-20T07:18:35.427Z,7.90
2018-06-20T07:21:04.122Z,10.97
2018-06-20T07:23:32.796Z,10.73
2018-06-20T07:26:01.455Z,9.33
2018-06-20T07:28:30.362Z,14.70
2018-06-20T07:30:59.121Z,11.60
2018-06-20T07:33:27.811Z,10.13
2018-06-20T07:35:56.632Z,8.60
2018-06-20T07:38:25.127Z,10.90
2018-06-20T07:40:53.828Z,7.53
2018-06-20T07:43:22.585Z,11.60
2018-06-20T07:45:51.324Z,9.70
2018-06-20T07:48:19.995Z,10.73
2018-06-20T07:50:48.799Z,11.63
2018-06-20T07:53:17.431Z,17.57
2018-06-20T07:55:46.148Z,9.90
2018-06-20T07:58:20.088Z,7.93
2018-06-20T08:00:54.115Z,6.50
2018-06-20T08:03:28.122Z,8.83
2018-06-20T08:06:02.663Z,8.27
2018-06-20T08:08:36.651Z,8.93
2018-06-20T08:11:10.615Z,11.03
2018-06-20T08:13:44.644Z,9.20
2018-06-20T08:16:18.843Z,7.07
2018-06-20T08:18:52.865Z,7.50
2018-06-20T08:21:21.514Z,9.40
2018-06-20T08:23:50.196Z,7.57
2018-06-20T08:26:19.413Z,8.37
2018-06-20T08:28:48.098Z,8.50
2018-06-20T08:31:16.813Z,7.63
2018-06-20T08:33:45.502Z,8.93
2018-06-20T08:36:14.259Z,7.23
2018-06-20T08:38:42.936Z,8.00
2018-06-20T08:41:11.658Z,7.63
2018-06-20T08:43:40.320Z,9.13
2018-06-20T08:46:08.959Z,11.03
2018-06-20T08:48:37.619Z,6.33
2018-06-20T08:51:06.690Z,10.13
2018-06-20T08:53:35.338Z,7.33
2018-06-20T08:56:04.018Z,6.90
2018-06-20T08:58:32.658Z,5.20
2018-06-20T09:01:02.585Z,4.60
2018-06-20T09:03:31.236Z,4.30
2018-06-20T09:06:05.375Z,5.80
2018-06-20T09:08:39.306Z,4.60
2018-06-20T09:11:13.267Z,5.73
2018-06-20T09:13:47.277Z,5.40
2018-06-20T09:18:29.057Z,7.93
2018-06-20T09:20:57.719Z,5.40
2018-06-20T09:23:26.447Z,5.53
2018-06-20T09:25:55.168Z,7.53
2018-06-20T09:28:23.895Z,7.97
2018-06-20T09:30:52.623Z,5.07
2018-06-20T09:33:21.327Z,4.37
2018-06-20T09:35:50.113Z,6.50
2018-06-20T09:38:18.777Z,6.07
2018-06-20T09:40:47.451Z,3.97
2018-06-20T09:43:16.135Z,4.23
2018-06-20T09:45:44.891Z,5.90
2018-06-20T09:48:13.769Z,5.80
2018-06-20T09:50:48.336Z,4.83
2018-06-20T09:53:17.045Z,6.03
2018-06-20T09:55:45.831Z,6.13
2018-06-20T09:58:15.610Z,8.37
2018-06-20T10:00:50.121Z,4.10
2018-06-20T10:03:24.166Z,4.83
2018-06-20T10:05:58.423Z,4.87
2018-06-20T10:08:32.484Z,4.70
2018-06-20T10:11:06.589Z,4.17
2018-06-20T10:13:40.718Z,3.90
2018-06-20T10:16:09.431Z,4.50
2018-06-20T10:18:38.196Z,7.30
2018-06-20T10:21:06.934Z,4.33
2018-06-20T10:23:35.637Z,3.83
2018-06-20T10:26:04.287Z,6.17
2018-06-20T10:28:33.163Z,3.43
2018-06-20T10:31:02.003Z,4.67
2018-06-20T10:33:30.705Z,4.87
2018-06-20T10:35:59.588Z,3.40
2018-06-20T10:38:28.341Z,4.50
2018-06-20T10:40:57.006Z,7.97
2018-06-20T10:43:25.995Z,7.47
2018-06-20T10:45:59.919Z,8.67
2018-06-20T10:48:28.598Z,5.03
2018-06-20T10:50:57.266Z,5.63
2018-06-20T10:53:25.988Z,4.00
2018-06-20T10:55:54.671Z,4.30
2018-06-20T10:58:28.631Z,4.23
2018-06-20T11:02:03.951Z,6.40
2018-06-20T11:04:37.960Z,5.33
2018-06-20T11:07:12.056Z,4.07
2018-06-20T11:09:46.525Z,3.43
2018-06-20T11:12:20.457Z,6.23
2018-06-20T11:14:49.120Z,5.47
2018-06-20T11:17:17.863Z,4.63
2018-06-20T11:19:46.503Z,4.67
2018-06-20T11:22:15.433Z,9.00
2018-06-20T11:24:44.103Z,9.00
2018-06-20T11:27:12.827Z,4.77
2018-06-20T11:29:41.548Z,5.07
2018-06-20T11:32:10.248Z,4.57
2018-06-20T11:34:38.952Z,4.20
2018-06-20T11:37:07.618Z,5.50
2018-06-20T11:39:36.378Z,5.60
2018-06-20T11:42:05.064Z,5.77
2018-06-20T11:44:33.728Z,6.53
2018-06-20T11:47:07.756Z,6.33
2018-06-20T11:49:36.415Z,5.30
2018-06-20T11:52:09.292Z,6.80
2018-06-20T11:54:37.978Z,5.20
2018-06-20T11:57:06.739Z,5.90
2018-06-20T11:59:40.849Z,6.53
2018-06-20T12:02:15.008Z,5.70
2018-06-20T12:04:49.064Z,5.20
2018-06-20T12:07:23.322Z,6.60
2018-06-20T12:09:57.304Z,8.50
2018-06-20T12:12:31.375Z,6.10
2018-06-20T12:15:05.636Z,8.50
2018-06-20T12:17:39.887Z,5.53
2018-06-20T12:20:13.859Z,6.37
2018-06-20T12:22:47.946Z,6.43
2018-06-20T12:25:21.911Z,7.00
2018-06-20T12:27:55.941Z,7.73
2018-06-20T12:30:29.932Z,11.40
2018-06-20T12:33:04.302Z,10.87
2018-06-20T12:35:38.364Z,6.80
2018-06-20T12:38:12.499Z,11.30
2018-06-20T12:40:46.613Z,6.57
2018-06-20T12:43:20.622Z,9.17
2018-06-20T12:45:53.544Z,9.50
2018-06-20T12:48:22.198Z,7.10
2018-06-20T12:50:50.858Z,12.67
2018-06-20T12:53:19.565Z,9.07
2018-06-20T12:55:48.377Z,7.33
2018-06-20T12:58:17.120Z,7.33
2018-06-20T13:00:45.800Z,8.13
2018-06-20T13:03:14.527Z,6.63
2018-06-20T13:05:43.345Z,7.00
2018-06-20T13:08:12.093Z,8.10
2018-06-20T13:10:40.768Z,9.43
2018-06-20T13:13:09.428Z,9.47
2018-06-20T13:15:38.043Z,7.50
2018-06-20T13:18:06.739Z,7.83
2018-06-20T13:20:35.469Z,8.27
2018-06-20T13:23:04.197Z,7.50
2018-06-20T13:25:34.340Z,7.40
2018-06-20T13:28:03.025Z,9.47
2018-06-20T13:30:31.843Z,10.67
2018-06-20T13:33:05.869Z,8.33
2018-06-20T13:35:40.041Z,9.43
2018-06-20T13:38:14.288Z,7.83
2018-06-20T13:40:48.465Z,9.90
2018-06-20T13:43:22.640Z,11.37
2018-06-20T13:45:56.624Z,8.50
2018-06-20T13:48:31.094Z,8.57
2018-06-20T13:50:59.853Z,8.97
2018-06-20T13:53:29.393Z,7.83
2018-06-20T13:55:58.055Z,9.90
2018-06-20T13:58:27.252Z,11.20
2018-06-20T14:00:55.988Z,10.47
2018-06-20T14:03:25.491Z,10.00
2018-06-20T14:05:56.412Z,8.80
2018-06-20T14:08:25.160Z,9.50
2018-06-20T14:10:53.872Z,9.33
2018-06-20T14:13:22.583Z,9.50
2018-06-20T14:15:51.262Z,8.23
2018-06-20T14:18:19.943Z,10.07
2018-06-20T14:20:54.169Z,10.27
2018-06-20T14:23:22.899Z,10.13
2018-06-20T14:25:51.663Z,8.60
2018-06-20T14:28:20.477Z,8.87
2018-06-20T14:30:54.582Z,8.20
2018-06-20T14:33:29.017Z,9.20
2018-06-20T14:36:02.998Z,8.50
2018-06-20T14:38:37.145Z,8.97
2018-06-20T14:41:11.077Z,8.23
2018-06-20T14:43:45.088Z,8.47
2018-06-20T14:46:15.278Z,8.60
2018-06-20T14:48:44.184Z,8.33
2018-06-20T14:51:12.867Z,7.83
2018-06-20T14:53:41.860Z,8.40
2018-06-20T14:56:10.527Z,11.50
2018-06-20T14:58:39.483Z,11.47
2018-06-20T15:01:08.489Z,9.03
2018-06-20T15:03:37.117Z,10.33
2018-06-20T15:06:05.903Z,10.50
2018-06-20T15:08:34.660Z,10.47
2018-06-20T15:11:03.330Z,9.80
2018-06-20T15:13:32.047Z,9.70
2018-06-20T15:16:06.245Z,8.60
2018-06-20T15:18:34.970Z,10.27
2018-06-20T15:21:03.668Z,10.10
2018-06-20T15:23:32.387Z,9.63
2018-06-20T15:26:06.479Z,11.90
2018-06-20T15:28:40.440Z,11.43
2018-06-20T15:31:14.443Z,10.43
2018-06-20T15:33:48.916Z,10.40
2018-06-20T15:36:22.899Z,10.10
2018-06-20T15:38:51.640Z,13.63
2018-06-20T15:41:20.347Z,10.23
2018-06-20T15:43:49.079Z,11.20
2018-06-20T15:46:17.760Z,10.87
2018-06-20T15:48:46.743Z,11.50
2018-06-20T15:51:15.512Z,11.33
2018-06-20T15:53:44.171Z,10.00
2018-06-20T15:56:12.907Z,10.77
2018-06-20T15:58:41.560Z,12.03
2018-06-20T16:01:10.265Z,11.73
2018-06-20T16:03:38.934Z,14.07
2018-06-20T16:06:07.632Z,14.07
2018-06-20T16:08:40.519Z,11.03
2018-06-20T16:11:09.244Z,11.67
2018-06-20T16:13:37.884Z,12.27
2018-06-20T16:16:06.658Z,10.40
2018-06-20T16:18:35.979Z,12.53
2018-06-20T16:21:10.256Z,11.00
2018-06-20T16:23:44.326Z,12.20
2018-06-20T16:26:18.415Z,11.93
2018-06-20T16:28:52.524Z,11.97
2018-06-20T16:31:21.254Z,13.27
2018-06-20T16:33:50.068Z,11.40
2018-06-20T16:36:18.751Z,11.97
2018-06-20T16:38:47.498Z,11.60
2018-06-20T16:41:16.275Z,12.27
2018-06-20T16:43:45.089Z,13.70
2018-06-20T16:46:13.703Z,12.80
2018-06-20T16:48:42.418Z,13.90
2018-06-20T16:51:11.080Z,13.37
2018-06-20T16:53:39.766Z,13.37
2018-06-20T16:56:08.500Z,13.03
2018-06-20T16:58:37.287Z,13.83
2018-06-20T17:01:11.995Z,14.27
2018-06-20T17:03:40.710Z,15.60
2018-06-20T17:06:09.465Z,13.43
2018-06-20T17:08:38.174Z,15.03
2018-06-20T17:11:06.937Z,14.30
2018-06-20T17:13:40.937Z,13.30
2018-06-20T17:16:14.966Z,13.33
2018-06-20T17:18:48.986Z,14.43
2018-06-20T17:21:23.003Z,14.50
2018-06-20T17:23:57.050Z,13.83
2018-06-20T17:26:28.393Z,14.40
2018-06-20T17:28:57.148Z,12.50
2018-06-20T17:31:26.855Z,14.77
2018-06-20T17:33:55.634Z,15.70
2018-06-20T17:36:24.340Z,13.23
2018-06-20T17:38:53.105Z,13.80
2018-06-20T17:41:21.933Z,12.93
2018-06-20T17:43:50.691Z,13.03
2018-06-20T17:46:19.442Z,13.57
2018-06-20T17:48:48.193Z,13.20
2018-06-20T17:51:17.133Z,14.43
2018-06-20T17:53:46.228Z,18.23
2018-06-20T17:56:15.492Z,13.50
2018-06-20T17:58:44.726Z,14.43
2018-06-20T18:01:13.585Z,12.73
2018-06-20T18:03:42.821Z,14.17
2018-06-20T18:06:17.018Z,15.90
2018-06-20T18:08:51.007Z,13.97
2018-06-20T18:12:25.497Z,15.33
2018-06-20T18:14:59.752Z,13.57
2018-06-20T18:17:28.467Z,13.87
2018-06-20T18:19:57.312Z,14.47
2018-06-20T18:22:26.034Z,14.97
2018-06-20T18:24:54.875Z,14.50
2018-06-20T18:27:23.640Z,13.10
2018-06-20T18:29:52.411Z,16.30
2018-06-20T18:32:21.194Z,14.70
2018-06-20T18:34:50.042Z,15.70
2018-06-20T18:37:18.856Z,14.13
2018-06-20T18:39:52.971Z,16.67
2018-06-20T18:42:21.835Z,13.83
2018-06-20T18:44:50.902Z,15.20
2018-06-20T18:47:25.463Z,15.30
2018-06-20T18:49:54.325Z,14.77
2018-06-20T18:52:23.087Z,15.33
2018-06-20T18:54:51.755Z,14.80
2018-06-20T18:57:25.897Z,29.83
2018-06-20T19:00:00.166Z,25.57
2018-06-20T19:02:34.237Z,18.97
2018-06-20T19:05:08.307Z,17.70
2018-06-20T19:07:42.319Z,17.83
2018-06-20T19:10:11.194Z,15.93
2018-06-20T19:12:41.124Z,18.80
2018-06-20T19:15:09.775Z,18.70
2018-06-20T19:17:38.641Z,17.07
2018-06-20T19:20:07.391Z,19.23
2018-06-20T19:22:36.113Z,18.10
2018-06-20T19:25:05.387Z,23.43
2018-06-20T19:27:34.163Z,20.43
2018-06-20T19:30:02.932Z,17.53
2018-06-20T19:32:31.732Z,17.20
2018-06-20T19:35:00.441Z,19.83
2018-06-20T19:37:29.143Z,20.63
2018-06-20T19:39:58.049Z,17.70
2018-06-20T19:42:26.727Z,33.93
2018-06-20T19:44:55.931Z,19.13
2018-06-20T19:47:24.323Z,20.17
2018-06-20T19:49:53.039Z,21.57
2018-06-20T19:52:21.805Z,18.70
2018-06-20T19:54:50.436Z,19.47
2018-06-20T19:57:19.944Z,20.23
2018-06-20T19:59:48.621Z,22.53
2018-06-20T20:02:17.365Z,21.27
2018-06-20T20:04:46.176Z,19.87
2018-06-20T20:07:14.983Z,20.67
2018-06-20T20:09:43.709Z,26.87
2018-06-20T20:12:12.488Z,23.53
2018-06-20T20:14:41.195Z,22.80
2018-06-20T20:17:09.852Z,22.30
2018-06-20T20:19:38.543Z,20.40
2018-06-20T20:22:07.548Z,21.03
2018-06-20T20:24:36.291Z,20.33
2018-06-20T20:27:05.024Z,21.87
2018-06-20T20:29:33.734Z,21.73
2018-06-20T20:32:02.423Z,21.67
2018-06-20T20:34:31.069Z,20.77
2018-06-20T20:36:59.763Z,19.97
2018-06-20T20:39:28.468Z,21.50
2018-06-20T20:41:57.314Z,20.57
2018-06-20T20:44:26.001Z,21.37
2018-06-20T20:46:54.691Z,20.40
2018-06-20T20:49:24.054Z,19.07
2018-06-20T20:51:52.791Z,18.60
2018-06-20T20:54:21.455Z,18.53
2018-06-20T20:56:50.866Z,21.33
2018-06-20T20:59:19.601Z,20.70
2018-06-20T21:01:48.331Z,21.27
2018-06-20T21:04:17.145Z,21.43
2018-06-20T21:06:45.835Z,19.37
2018-06-20T21:09:16.840Z,24.07
2018-06-20T21:11:45.539Z,22.37
2018-06-20T21:14:14.339Z,20.33
2018-06-20T21:16:43.291Z,23.03
2018-06-20T21:19:12.026Z,19.80
2018-06-20T21:21:41.873Z,21.60
2018-06-20T21:24:11.152Z,21.93
2018-06-20T21:26:39.995Z,21.70
2018-06-20T21:29:08.994Z,23.43
2018-06-20T21:31:39.199Z,31.57
2018-06-20T21:34:07.862Z,29.20
2018-06-20T21:36:36.572Z,32.47
2018-06-20T21:39:07.762Z,29.50
2018-06-20T21:41:36.456Z,30.43
2018-06-20T21:44:05.395Z,26.17
2018-06-20T21:46:34.219Z,29.00
2018-06-20T21:49:03.025Z,23.00
2018-06-20T21:51:33.500Z,22.30
2018-06-20T21:54:02.185Z,21.00
2018-06-20T21:56:31.868Z,21.80
2018-06-20T21:59:00.541Z,23.20
2018-06-20T22:01:29.227Z,23.40
2018-06-20T22:03:58.641Z,20.90
2018-06-20T22:06:27.358Z,20.30
2018-06-20T22:08:56.715Z,20.37
2018-06-20T22:11:25.601Z,22.83
2018-06-20T22:13:54.363Z,21.43
2018-06-20T22:16:24.639Z,20.63
2018-06-20T22:18:53.451Z,21.10
2018-06-20T22:21:22.136Z,19.60
2018-06-20T22:23:53.209Z,19.53
2018-06-20T22:26:22.663Z,21.83
2018-06-20T22:28:51.519Z,25.03
2018-06-20T22:31:20.798Z,26.07
2018-06-20T22:33:49.668Z,27.03
2018-06-20T22:36:18.452Z,35.17
2018-06-20T22:38:48.170Z,35.17
2018-06-20T22:41:16.926Z,45.67
2018-06-20T22:43:45.602Z,26.53
2018-06-20T22:46:14.418Z,35.03
2018-06-20T22:48:43.106Z,29.60
2018-06-20T22:51:11.781Z,28.50
2018-06-20T22:53:40.481Z,25.07
2018-06-20T22:56:10.781Z,24.20
2018-06-20T22:58:39.489Z,25.93
2018-06-20T23:01:08.151Z,23.83
2018-06-20T23:03:36.803Z,23.20
2018-06-20T23:06:05.750Z,27.97
2018-06-20T23:08:34.446Z,26.17
2018-06-20T23:11:03.673Z,26.07
2018-06-20T23:13:33.046Z,26.97
2018-06-20T23:16:01.784Z,25.20
2018-06-20T23:18:30.479Z,29.00
2018-06-20T23:20:59.203Z,25.33
2018-06-20T23:23:27.883Z,27.57
2018-06-20T23:25:56.526Z,27.93
2018-06-20T23:28:25.262Z,29.43
2018-06-20T23:30:53.925Z,25.70
2018-06-20T23:33:22.603Z,31.50
2018-06-20T23:35:51.300Z,31.07
2018-06-20T23:38:20.020Z,32.53
2018-06-20T23:40:48.708Z,33.70
2018-06-20T23:43:18.358Z,31.70
2018-06-20T23:45:48.486Z,30.03
2018-06-20T23:48:17.409Z,32.03
2018-06-20T23:50:46.133Z,27.97
2018-06-20T23:53:14.845Z,27.63
2018-06-20T23:55:43.524Z,31.43
2018-06-20T23:58:12.230Z,32.47
